sensor_id;sensor_type;location;lat;lon;timestamp;pressure;altitude;pressure_sealevel;temperature;humidity
82148;BME280;71718;50.480;12.110;2023-11-19T00:01:49;97559.84;;;2.08;78.45
82148;BME280;71718;50.480;12.110;2023-11-19T00:04:15;97548.47;;;2.11;80.66
82148;BME280;71718;50.480;12.110;2023-11-19T00:06:42;97550.34;;;2.01;80.77
82148;BME280;71718;50.480;12.110;2023-11-19T00:09:08;97543.94;;;2.05;79.87
82148;BME280;71718;50.480;12.110;2023-11-19T00:11:35;97536.78;;;2.08;78.22
82148;BME280;71718;50.480;12.110;2023-11-19T00:14:01;97549.47;;;2.18;80.86
82148;BME280;71718;50.480;12.110;2023-11-19T00:16:27;97542.13;;;2.23;79.48
82148;BME280;71718;50.480;12.110;2023-11-19T00:18:54;97532.81;;;2.22;80.79
82148;BME280;71718;50.480;12.110;2023-11-19T00:21:20;97538.28;;;2.27;77.72
82148;BME280;71718;50.480;12.110;2023-11-19T00:23:47;97537.19;;;2.30;79.66
82148;BME280;71718;50.480;12.110;2023-11-19T00:26:13;97543.09;;;2.30;80.96
82148;BME280;71718;50.480;12.110;2023-11-19T00:28:39;97540.69;;;2.29;77.29
82148;BME280;71718;50.480;12.110;2023-11-19T00:31:06;97528.22;;;2.34;76.23
82148;BME280;71718;50.480;12.110;2023-11-19T00:33:32;97521.97;;;2.36;76.63
82148;BME280;71718;50.480;12.110;2023-11-19T00:35:59;97517.50;;;2.38;78.83
82148;BME280;71718;50.480;12.110;2023-11-19T00:38:25;97517.81;;;2.35;77.34
82148;BME280;71718;50.480;12.110;2023-11-19T00:40:52;97515.06;;;2.37;79.12
82148;BME280;71718;50.480;12.110;2023-11-19T00:43:18;97506.91;;;2.33;75.45
82148;BME280;71718;50.480;12.110;2023-11-19T00:45:44;97505.13;;;2.26;79.74
82148;BME280;71718;50.480;12.110;2023-11-19T00:48:11;97501.13;;;2.23;78.43
82148;BME280;71718;50.480;12.110;2023-11-19T00:50:37;97504.78;;;2.21;79.38
82148;BME280;71718;50.480;12.110;2023-11-19T00:53:05;97496.00;;;2.23;77.56
82148;BME280;71718;50.480;12.110;2023-11-19T00:55:32;97487.34;;;2.24;78.37
82148;BME280;71718;50.480;12.110;2023-11-19T00:57:58;97475.03;;;2.28;78.57
82148;BME280;71718;50.480;12.110;2023-11-19T01:00:25;97475.69;;;2.30;77.94
82148;BME280;71718;50.480;12.110;2023-11-19T01:02:51;97472.13;;;2.31;77.38
82148;BME280;71718;50.480;12.110;2023-11-19T01:05:19;97465.91;;;2.33;77.74
82148;BME280;71718;50.480;12.110;2023-11-19T01:07:46;97468.63;;;2.32;79.09
82148;BME280;71718;50.480;12.110;2023-11-19T01:10:12;97455.34;;;2.36;78.74
82148;BME280;71718;50.480;12.110;2023-11-19T01:12:39;97464.94;;;2.34;78.50
82148;BME280;71718;50.480;12.110;2023-11-19T01:15:06;97471.03;;;2.41;78.53
82148;BME280;71718;50.480;12.110;2023-11-19T01:17:32;97471.69;;;2.43;79.71
82148;BME280;71718;50.480;12.110;2023-11-19T01:19:59;97460.00;;;2.49;79.41
82148;BME280;71718;50.480;12.110;2023-11-19T01:22:25;97463.66;;;2.46;79.76
82148;BME280;71718;50.480;12.110;2023-11-19T01:24:51;97464.16;;;2.50;78.03
82148;BME280;71718;50.480;12.110;2023-11-19T01:27:18;97449.44;;;2.60;77.71
82148;BME280;71718;50.480;12.110;2023-11-19T01:29:44;97442.69;;;2.59;78.85
82148;BME280;71718;50.480;12.110;2023-11-19T01:32:11;97439.34;;;2.59;77.11
82148;BME280;71718;50.480;12.110;2023-11-19T01:34:37;97435.81;;;2.60;76.76
82148;BME280;71718;50.480;12.110;2023-11-19T01:37:04;97425.38;;;2.69;77.31
82148;BME280;71718;50.480;12.110;2023-11-19T01:39:30;97418.03;;;2.66;78.00
82148;BME280;71718;50.480;12.110;2023-11-19T01:41:56;97415.78;;;2.71;78.20
82148;BME280;71718;50.480;12.110;2023-11-19T01:44:23;97411.47;;;2.72;77.41
82148;BME280;71718;50.480;12.110;2023-11-19T01:46:49;97407.94;;;2.57;78.47
82148;BME280;71718;50.480;12.110;2023-11-19T01:49:17;97397.34;;;2.51;77.16
82148;BME280;71718;50.480;12.110;2023-11-19T01:51:45;97404.09;;;2.44;78.28
82148;BME280;71718;50.480;12.110;2023-11-19T01:54:13;97402.00;;;2.48;76.86
82148;BME280;71718;50.480;12.110;2023-11-19T01:56:40;97391.91;;;2.46;78.59
82148;BME280;71718;50.480;12.110;2023-11-19T01:59:09;97396.72;;;2.49;78.79
82148;BME280;71718;50.480;12.110;2023-11-19T02:01:37;97404.25;;;2.51;78.83
82148;BME280;71718;50.480;12.110;2023-11-19T02:04:04;97397.34;;;2.51;78.19
82148;BME280;71718;50.480;12.110;2023-11-19T02:06:32;97389.66;;;2.51;78.01
82148;BME280;71718;50.480;12.110;2023-11-19T02:08:59;97383.28;;;2.56;77.79
82148;BME280;71718;50.480;12.110;2023-11-19T02:11:26;97381.66;;;2.63;76.45
82148;BME280;71718;50.480;12.110;2023-11-19T02:13:53;97369.97;;;2.60;76.55
82148;BME280;71718;50.480;12.110;2023-11-19T02:16:19;97357.13;;;2.68;77.63
82148;BME280;71718;50.480;12.110;2023-11-19T02:18:46;97357.13;;;2.68;77.19
82148;BME280;71718;50.480;12.110;2023-11-19T02:21:12;97353.13;;;2.74;75.47
82148;BME280;71718;50.480;12.110;2023-11-19T02:23:38;97347.53;;;2.70;76.81
82148;BME280;71718;50.480;12.110;2023-11-19T02:26:28;97354.56;;;2.68;77.83
82148;BME280;71718;50.480;12.110;2023-11-19T02:28:58;97342.53;;;2.69;78.25
82148;BME280;71718;50.480;12.110;2023-11-19T02:31:24;97346.75;;;2.62;78.45
82148;BME280;71718;50.480;12.110;2023-11-19T02:33:51;97341.31;;;2.57;76.51
82148;BME280;71718;50.480;12.110;2023-11-19T02:36:17;97339.22;;;2.60;78.62
82148;BME280;71718;50.480;12.110;2023-11-19T02:38:44;97329.56;;;2.62;79.39
82148;BME280;71718;50.480;12.110;2023-11-19T02:41:10;97326.84;;;2.64;78.26
82148;BME280;71718;50.480;12.110;2023-11-19T02:43:37;97320.28;;;2.69;79.22
82148;BME280;71718;50.480;12.110;2023-11-19T02:46:04;97309.03;;;2.78;78.70
82148;BME280;71718;50.480;12.110;2023-11-19T02:48:41;97315.59;;;2.81;78.48
82148;BME280;71718;50.480;12.110;2023-11-19T02:51:07;97306.31;;;2.80;78.99
82148;BME280;71718;50.480;12.110;2023-11-19T02:53:34;97303.88;;;2.86;78.35
82148;BME280;71718;50.480;12.110;2023-11-19T02:56:00;97304.19;;;2.91;79.11
82148;BME280;71718;50.480;12.110;2023-11-19T02:58:27;97300.81;;;2.91;78.37
82148;BME280;71718;50.480;12.110;2023-11-19T03:00:55;97293.38;;;3.04;77.91
82148;BME280;71718;50.480;12.110;2023-11-19T03:03:21;97288.09;;;3.06;77.99
82148;BME280;71718;50.480;12.110;2023-11-19T03:05:48;97278.28;;;3.09;77.27
82148;BME280;71718;50.480;12.110;2023-11-19T03:08:15;97276.53;;;3.10;77.74
82148;BME280;71718;50.480;12.110;2023-11-19T03:10:45;97271.59;;;3.08;78.41
82148;BME280;71718;50.480;12.110;2023-11-19T03:13:12;97279.00;;;3.03;78.13
82148;BME280;71718;50.480;12.110;2023-11-19T03:15:39;97266.81;;;2.97;78.08
82148;BME280;71718;50.480;12.110;2023-11-19T03:18:06;97256.38;;;2.99;78.42
82148;BME280;71718;50.480;12.110;2023-11-19T03:20:32;97268.44;;;2.98;78.15
82148;BME280;71718;50.480;12.110;2023-11-19T03:22:59;97260.03;;;3.04;78.48
82148;BME280;71718;50.480;12.110;2023-11-19T03:25:26;97245.75;;;3.10;78.00
82148;BME280;71718;50.480;12.110;2023-11-19T03:27:52;97239.00;;;3.09;78.69
82148;BME280;71718;50.480;12.110;2023-11-19T03:30:19;97247.06;;;3.06;79.68
82148;BME280;71718;50.480;12.110;2023-11-19T03:32:45;97251.00;;;3.16;76.45
82148;BME280;71718;50.480;12.110;2023-11-19T03:35:11;97261.56;;;3.21;73.68
82148;BME280;71718;50.480;12.110;2023-11-19T03:37:38;97246.16;;;3.21;76.17
82148;BME280;71718;50.480;12.110;2023-11-19T03:40:05;97239.72;;;3.25;77.01
82148;BME280;71718;50.480;12.110;2023-11-19T03:42:31;97240.94;;;3.37;76.47
82148;BME280;71718;50.480;12.110;2023-11-19T03:44:58;97250.19;;;3.47;77.33
82148;BME280;71718;50.480;12.110;2023-11-19T03:47:24;97254.00;;;3.51;77.07
82148;BME280;71718;50.480;12.110;2023-11-19T03:49:51;97244.81;;;3.56;77.54
82148;BME280;71718;50.480;12.110;2023-11-19T03:52:18;97240.03;;;3.53;72.53
82148;BME280;71718;50.480;12.110;2023-11-19T03:54:46;97229.63;;;3.55;76.09
82148;BME280;71718;50.480;12.110;2023-11-19T03:57:13;97216.41;;;3.58;76.38
82148;BME280;71718;50.480;12.110;2023-11-19T03:59:39;97218.31;;;3.64;77.05
82148;BME280;71718;50.480;12.110;2023-11-19T04:02:06;97216.84;;;3.69;78.12
82148;BME280;71718;50.480;12.110;2023-11-19T04:04:32;97212.97;;;3.73;78.77
82148;BME280;71718;50.480;12.110;2023-11-19T04:07:00;97210.22;;;3.75;77.42
82148;BME280;71718;50.480;12.110;2023-11-19T04:09:27;97209.81;;;3.63;79.01
82148;BME280;71718;50.480;12.110;2023-11-19T04:11:53;97207.38;;;3.70;81.08
82148;BME280;71718;50.480;12.110;2023-11-19T04:14:20;97205.63;;;3.70;79.12
82148;BME280;71718;50.480;12.110;2023-11-19T04:16:46;97204.50;;;3.65;73.09
82148;BME280;71718;50.480;12.110;2023-11-19T04:19:13;97201.94;;;3.65;73.90
82148;BME280;71718;50.480;12.110;2023-11-19T04:21:40;97190.38;;;3.69;77.81
82148;BME280;71718;50.480;12.110;2023-11-19T04:24:07;97192.06;;;3.76;78.99
82148;BME280;71718;50.480;12.110;2023-11-19T04:26:34;97183.75;;;3.74;75.50
82148;BME280;71718;50.480;12.110;2023-11-19T04:29:00;97174.44;;;3.73;78.79
82148;BME280;71718;50.480;12.110;2023-11-19T04:31:29;97171.19;;;3.80;79.99
82148;BME280;71718;50.480;12.110;2023-11-19T04:33:56;97165.84;;;3.81;80.93
82148;BME280;71718;50.480;12.110;2023-11-19T04:36:22;97167.72;;;3.87;79.11
82148;BME280;71718;50.480;12.110;2023-11-19T04:38:49;97167.91;;;3.86;75.19
82148;BME280;71718;50.480;12.110;2023-11-19T04:41:15;97165.00;;;3.89;78.90
82148;BME280;71718;50.480;12.110;2023-11-19T04:43:42;97183.63;;;4.05;79.15
82148;BME280;71718;50.480;12.110;2023-11-19T04:46:09;97183.72;;;4.12;79.79
82148;BME280;71718;50.480;12.110;2023-11-19T04:48:36;97178.38;;;4.13;80.03
82148;BME280;71718;50.480;12.110;2023-11-19T04:51:05;97190.91;;;4.16;77.56
82148;BME280;71718;50.480;12.110;2023-11-19T04:53:32;97171.91;;;4.17;75.27
82148;BME280;71718;50.480;12.110;2023-11-19T04:55:58;97167.41;;;4.19;76.03
82148;BME280;71718;50.480;12.110;2023-11-19T04:58:24;97166.00;;;4.32;79.59
82148;BME280;71718;50.480;12.110;2023-11-19T05:00:51;97159.63;;;4.42;80.52
82148;BME280;71718;50.480;12.110;2023-11-19T05:03:17;97156.84;;;4.44;78.81
82148;BME280;71718;50.480;12.110;2023-11-19T05:05:44;97161.38;;;4.42;73.69
82148;BME280;71718;50.480;12.110;2023-11-19T05:08:10;97161.28;;;4.50;79.00
82148;BME280;71718;50.480;12.110;2023-11-19T05:10:37;97159.69;;;4.49;75.09
82148;BME280;71718;50.480;12.110;2023-11-19T05:13:05;97168.28;;;4.56;74.30
82148;BME280;71718;50.480;12.110;2023-11-19T05:15:31;97166.78;;;4.61;78.37
82148;BME280;71718;50.480;12.110;2023-11-19T05:17:58;97158.78;;;4.71;80.27
82148;BME280;71718;50.480;12.110;2023-11-19T05:20:24;97153.88;;;4.76;78.27
82148;BME280;71718;50.480;12.110;2023-11-19T05:22:51;97163.03;;;4.79;80.70
82148;BME280;71718;50.480;12.110;2023-11-19T05:25:17;97152.75;;;4.79;80.49
82148;BME280;71718;50.480;12.110;2023-11-19T05:27:43;97138.28;;;4.78;73.95
82148;BME280;71718;50.480;12.110;2023-11-19T05:30:10;97144.78;;;4.74;74.53
82148;BME280;71718;50.480;12.110;2023-11-19T05:32:37;97140.69;;;4.79;79.19
82148;BME280;71718;50.480;12.110;2023-11-19T05:35:04;97123.53;;;4.86;80.34
82148;BME280;71718;50.480;12.110;2023-11-19T05:37:30;97131.88;;;4.88;79.90
82148;BME280;71718;50.480;12.110;2023-11-19T05:39:57;97149.66;;;4.90;73.83
82148;BME280;71718;50.480;12.110;2023-11-19T05:42:23;97131.88;;;4.88;76.64
82148;BME280;71718;50.480;12.110;2023-11-19T05:44:50;97128.13;;;4.91;73.88
82148;BME280;71718;50.480;12.110;2023-11-19T05:47:16;97113.41;;;4.85;75.52
82148;BME280;71718;50.480;12.110;2023-11-19T05:49:42;97113.22;;;4.86;74.07
82148;BME280;71718;50.480;12.110;2023-11-19T05:52:09;97124.22;;;4.95;79.21
82148;BME280;71718;50.480;12.110;2023-11-19T05:54:35;97126.50;;;4.90;73.74
82148;BME280;71718;50.480;12.110;2023-11-19T05:57:02;97113.22;;;4.86;75.49
82148;BME280;71718;50.480;12.110;2023-11-19T05:59:28;97110.56;;;4.94;78.93
82148;BME280;71718;50.480;12.110;2023-11-19T06:01:54;97097.69;;;4.94;73.62
82148;BME280;71718;50.480;12.110;2023-11-19T06:04:21;97105.28;;;5.02;76.35
82148;BME280;71718;50.480;12.110;2023-11-19T06:06:47;97110.41;;;5.02;73.90
82148;BME280;71718;50.480;12.110;2023-11-19T06:09:14;97104.47;;;5.02;70.68
82148;BME280;71718;50.480;12.110;2023-11-19T06:11:40;97103.88;;;5.00;74.75
82148;BME280;71718;50.480;12.110;2023-11-19T06:14:06;97094.00;;;5.03;75.41
82148;BME280;71718;50.480;12.110;2023-11-19T06:16:33;97091.44;;;4.82;76.56
82148;BME280;71718;50.480;12.110;2023-11-19T06:18:59;97108.56;;;4.96;76.39
82148;BME280;71718;50.480;12.110;2023-11-19T06:21:26;97126.03;;;5.01;76.89
82148;BME280;71718;50.480;12.110;2023-11-19T06:23:52;97130.47;;;5.07;75.85
82148;BME280;71718;50.480;12.110;2023-11-19T06:26:19;97124.97;;;5.10;73.08
82148;BME280;71718;50.480;12.110;2023-11-19T06:28:45;97111.56;;;5.21;76.12
82148;BME280;71718;50.480;12.110;2023-11-19T06:31:11;97115.81;;;5.29;77.65
82148;BME280;71718;50.480;12.110;2023-11-19T06:33:38;97123.91;;;5.26;76.91
82148;BME280;71718;50.480;12.110;2023-11-19T06:36:05;97115.19;;;5.27;72.72
82148;BME280;71718;50.480;12.110;2023-11-19T06:38:31;97122.31;;;5.25;70.39
82148;BME280;71718;50.480;12.110;2023-11-19T06:40:58;97129.41;;;5.44;78.01
82148;BME280;71718;50.480;12.110;2023-11-19T06:43:24;97132.47;;;5.54;76.44
82148;BME280;71718;50.480;12.110;2023-11-19T06:45:50;97122.97;;;5.55;71.01
82148;BME280;71718;50.480;12.110;2023-11-19T06:48:17;97133.81;;;5.50;72.47
82148;BME280;71718;50.480;12.110;2023-11-19T06:50:43;97136.41;;;5.50;69.88
82148;BME280;71718;50.480;12.110;2023-11-19T06:53:10;97133.69;;;5.58;76.14
82148;BME280;71718;50.480;12.110;2023-11-19T06:55:36;97134.34;;;5.67;78.77
82148;BME280;71718;50.480;12.110;2023-11-19T06:58:03;97125.63;;;5.68;76.98
82148;BME280;71718;50.480;12.110;2023-11-19T07:00:29;97131.22;;;5.71;77.52
82148;BME280;71718;50.480;12.110;2023-11-19T07:02:56;97129.09;;;5.81;78.00
82148;BME280;71718;50.480;12.110;2023-11-19T07:05:22;97127.34;;;5.82;73.10
82148;BME280;71718;50.480;12.110;2023-11-19T07:07:49;97128.19;;;5.61;70.09
82148;BME280;71718;50.480;12.110;2023-11-19T07:10:15;97128.41;;;5.66;72.28
82148;BME280;71718;50.480;12.110;2023-11-19T07:12:42;97137.81;;;5.80;76.74
82148;BME280;71718;50.480;12.110;2023-11-19T07:15:08;97131.13;;;5.86;78.36
82148;BME280;71718;50.480;12.110;2023-11-19T07:17:35;97124.38;;;5.85;74.58
82148;BME280;71718;50.480;12.110;2023-11-19T07:20:01;97133.75;;;5.93;78.05
82148;BME280;71718;50.480;12.110;2023-11-19T07:22:28;97139.50;;;5.95;76.36
82148;BME280;71718;50.480;12.110;2023-11-19T07:24:54;97131.00;;;6.01;77.02
82148;BME280;71718;50.480;12.110;2023-11-19T07:27:21;97129.41;;;5.93;68.81
82148;BME280;71718;50.480;12.110;2023-11-19T07:29:47;97122.97;;;5.82;72.59
82148;BME280;71718;50.480;12.110;2023-11-19T07:32:14;97137.06;;;5.86;71.49
82148;BME280;71718;50.480;12.110;2023-11-19T07:34:40;97142.47;;;5.91;71.52
82148;BME280;71718;50.480;12.110;2023-11-19T07:37:06;97146.44;;;5.94;71.04
82148;BME280;71718;50.480;12.110;2023-11-19T07:39:33;97137.72;;;5.95;75.89
82148;BME280;71718;50.480;12.110;2023-11-19T07:41:59;97128.63;;;5.99;75.48
82148;BME280;71718;50.480;12.110;2023-11-19T07:44:26;97135.09;;;6.16;75.06
82148;BME280;71718;50.480;12.110;2023-11-19T07:46:52;97136.53;;;6.19;77.76
82148;BME280;71718;50.480;12.110;2023-11-19T07:49:19;97143.09;;;6.28;69.91
82148;BME280;71718;50.480;12.110;2023-11-19T07:51:45;97140.00;;;6.39;76.17
82148;BME280;71718;50.480;12.110;2023-11-19T07:54:11;97143.00;;;6.49;74.63
82148;BME280;71718;50.480;12.110;2023-11-19T07:56:38;97141.03;;;6.51;71.70
82148;BME280;71718;50.480;12.110;2023-11-19T07:59:04;97125.19;;;6.54;74.29
82148;BME280;71718;50.480;12.110;2023-11-19T08:01:31;97134.72;;;6.60;70.08
82148;BME280;71718;50.480;12.110;2023-11-19T08:03:57;97135.94;;;6.64;73.64
82148;BME280;71718;50.480;12.110;2023-11-19T08:06:25;97146.41;;;6.56;65.88
82148;BME280;71718;50.480;12.110;2023-11-19T08:08:52;97140.22;;;6.51;66.18
82148;BME280;71718;50.480;12.110;2023-11-19T08:11:19;97130.91;;;6.50;67.92
82148;BME280;71718;50.480;12.110;2023-11-19T08:13:45;97141.25;;;6.56;67.20
82148;BME280;71718;50.480;12.110;2023-11-19T08:16:11;97134.31;;;6.57;66.69
82148;BME280;71718;50.480;12.110;2023-11-19T08:18:41;97137.69;;;6.57;72.78
82148;BME280;71718;50.480;12.110;2023-11-19T08:21:08;97127.59;;;6.69;78.71
82148;BME280;71718;50.480;12.110;2023-11-19T08:23:34;97132.19;;;6.73;66.63
82148;BME280;71718;50.480;12.110;2023-11-19T08:26:00;97128.47;;;6.89;74.85
82148;BME280;71718;50.480;12.110;2023-11-19T08:28:27;97129.88;;;7.05;67.89
82148;BME280;71718;50.480;12.110;2023-11-19T08:30:53;97127.28;;;6.92;66.73
82148;BME280;71718;50.480;12.110;2023-11-19T08:33:20;97129.88;;;6.92;71.52
82148;BME280;71718;50.480;12.110;2023-11-19T08:35:46;97135.44;;;6.95;66.82
82148;BME280;71718;50.480;12.110;2023-11-19T08:38:12;97130.47;;;7.00;70.09
82148;BME280;71718;50.480;12.110;2023-11-19T08:40:39;97125.69;;;6.91;66.37
82148;BME280;71718;50.480;12.110;2023-11-19T08:43:05;97122.09;;;6.85;66.10
82148;BME280;71718;50.480;12.110;2023-11-19T08:45:32;97118.91;;;6.83;69.69
82148;BME280;71718;50.480;12.110;2023-11-19T08:47:58;97126.84;;;6.82;68.01
82148;BME280;71718;50.480;12.110;2023-11-19T08:50:24;97128.03;;;6.79;67.25
82148;BME280;71718;50.480;12.110;2023-11-19T08:52:51;97128.03;;;6.79;68.46
82148;BME280;71718;50.480;12.110;2023-11-19T08:55:17;97119.09;;;6.82;66.87
82148;BME280;71718;50.480;12.110;2023-11-19T08:57:44;97113.59;;;6.91;69.60
82148;BME280;71718;50.480;12.110;2023-11-19T09:00:11;97108.03;;;6.94;67.66
82148;BME280;71718;50.480;12.110;2023-11-19T09:02:37;97120.38;;;7.12;69.56
82148;BME280;71718;50.480;12.110;2023-11-19T09:05:05;97116.78;;;7.13;70.71
82148;BME280;71718;50.480;12.110;2023-11-19T09:07:32;97116.81;;;7.19;69.12
82148;BME280;71718;50.480;12.110;2023-11-19T09:09:58;97110.66;;;7.34;71.93
82148;BME280;71718;50.480;12.110;2023-11-19T09:12:25;97119.22;;;7.41;67.87
82148;BME280;71718;50.480;12.110;2023-11-19T09:14:51;97109.88;;;7.53;66.25
82148;BME280;71718;50.480;12.110;2023-11-19T09:17:17;97111.06;;;7.50;71.44
82148;BME280;71718;50.480;12.110;2023-11-19T09:19:44;97112.66;;;7.51;65.87
82148;BME280;71718;50.480;12.110;2023-11-19T09:22:10;97110.47;;;7.48;65.93
82148;BME280;71718;50.480;12.110;2023-11-19T09:24:37;97118.44;;;7.53;67.35
82148;BME280;71718;50.480;12.110;2023-11-19T09:27:03;97118.41;;;7.67;66.08
82148;BME280;71718;50.480;12.110;2023-11-19T09:29:33;97118.22;;;7.61;65.60
82148;BME280;71718;50.480;12.110;2023-11-19T09:31:59;97109.06;;;7.39;66.44
82148;BME280;71718;50.480;12.110;2023-11-19T09:34:26;97102.50;;;7.30;67.38
82148;BME280;71718;50.480;12.110;2023-11-19T09:36:52;97097.34;;;7.37;69.82
82148;BME280;71718;50.480;12.110;2023-11-19T09:39:19;97106.09;;;7.23;71.08
82148;BME280;71718;50.480;12.110;2023-11-19T09:41:45;97098.31;;;7.03;68.94
82148;BME280;71718;50.480;12.110;2023-11-19T09:44:12;97097.88;;;6.93;70.54
82148;BME280;71718;50.480;12.110;2023-11-19T09:46:40;97096.72;;;7.02;70.16
82148;BME280;71718;50.480;12.110;2023-11-19T09:49:08;97088.78;;;7.10;69.22
82148;BME280;71718;50.480;12.110;2023-11-19T09:51:35;97106.25;;;7.08;69.73
82148;BME280;71718;50.480;12.110;2023-11-19T09:54:02;97098.72;;;7.06;69.12
82148;BME280;71718;50.480;12.110;2023-11-19T09:56:33;97096.09;;;6.87;69.79
82148;BME280;71718;50.480;12.110;2023-11-19T09:59:00;97096.88;;;6.87;71.30
82148;BME280;71718;50.480;12.110;2023-11-19T10:01:27;97096.31;;;6.92;70.50
82148;BME280;71718;50.480;12.110;2023-11-19T10:03:55;97093.94;;;7.03;70.65
82148;BME280;71718;50.480;12.110;2023-11-19T10:06:22;97099.13;;;7.10;71.06
82148;BME280;71718;50.480;12.110;2023-11-19T10:08:50;97103.69;;;7.21;72.19
82148;BME280;71718;50.480;12.110;2023-11-19T10:11:17;97102.50;;;7.24;72.08
82148;BME280;71718;50.480;12.110;2023-11-19T10:13:43;97080.84;;;7.31;69.49
82148;BME280;71718;50.480;12.110;2023-11-19T10:16:12;97097.38;;;7.43;70.66
82148;BME280;71718;50.480;12.110;2023-11-19T10:18:45;97087.41;;;7.40;70.41
82148;BME280;71718;50.480;12.110;2023-11-19T10:21:18;97087.78;;;7.44;68.76
82148;BME280;71718;50.480;12.110;2023-11-19T10:26:14;97090.59;;;7.55;68.72
82148;BME280;71718;50.480;12.110;2023-11-19T10:28:40;97101.88;;;7.81;68.22
82148;BME280;71718;50.480;12.110;2023-11-19T10:31:07;97114.63;;;7.82;70.07
82148;BME280;71718;50.480;12.110;2023-11-19T10:33:33;97102.91;;;7.73;68.33
82148;BME280;71718;50.480;12.110;2023-11-19T10:36:00;97090.41;;;7.57;68.45
82148;BME280;71718;50.480;12.110;2023-11-19T10:38:28;97090.19;;;7.65;68.56
82148;BME280;71718;50.480;12.110;2023-11-19T10:40:55;97067.72;;;7.79;69.69
82148;BME280;71718;50.480;12.110;2023-11-19T10:43:22;97076.03;;;7.87;67.93
82148;BME280;71718;50.480;12.110;2023-11-19T10:45:49;97081.63;;;7.84;69.78
82148;BME280;71718;50.480;12.110;2023-11-19T10:48:16;97055.53;;;7.92;69.81
82148;BME280;71718;50.480;12.110;2023-11-19T10:50:43;97054.38;;;7.88;68.00
82148;BME280;71718;50.480;12.110;2023-11-19T10:53:11;97055.72;;;7.91;67.92
82148;BME280;71718;50.480;12.110;2023-11-19T10:55:39;97052.56;;;7.95;68.67
82148;BME280;71718;50.480;12.110;2023-11-19T11:00:38;97055.34;;;7.94;68.15
82148;BME280;71718;50.480;12.110;2023-11-19T11:03:10;97046.81;;;7.87;69.32
82148;BME280;71718;50.480;12.110;2023-11-19T11:05:37;97055.38;;;8.00;68.59
82148;BME280;71718;50.480;12.110;2023-11-19T11:08:06;97052.38;;;8.03;67.73
82148;BME280;71718;50.480;12.110;2023-11-19T11:10:36;97053.56;;;8.01;67.67
82148;BME280;71718;50.480;12.110;2023-11-19T11:13:23;97055.34;;;7.94;68.15
82148;BME280;71718;50.480;12.110;2023-11-19T11:15:51;97056.56;;;7.98;68.11
82148;BME280;71718;50.480;12.110;2023-11-19T11:18:17;97048.16;;;8.16;68.79
82148;BME280;71718;50.480;12.110;2023-11-19T11:20:44;97039.97;;;8.25;67.24
82148;BME280;71718;50.480;12.110;2023-11-19T11:33:01;97049.31;;;8.64;66.36
82148;BME280;71718;50.480;12.110;2023-11-19T11:35:59;97053.06;;;8.68;65.98
82148;BME280;71718;50.480;12.110;2023-11-19T11:38:26;97059.28;;;8.67;66.26
82148;BME280;71718;50.480;12.110;2023-11-19T11:41:22;97058.94;;;8.57;67.58
82148;BME280;71718;50.480;12.110;2023-11-19T11:43:54;97059.97;;;8.81;66.69
82148;BME280;71718;50.480;12.110;2023-11-19T11:49:01;97058.09;;;8.95;66.58
82148;BME280;71718;50.480;12.110;2023-11-19T11:54:11;97053.13;;;9.24;64.65
82148;BME280;71718;50.480;12.110;2023-11-19T11:57:10;97060.50;;;9.21;64.79
82148;BME280;71718;50.480;12.110;2023-11-19T12:02:07;97072.59;;;9.52;64.79
82148;BME280;71718;50.480;12.110;2023-11-19T12:04:36;97064.38;;;9.86;65.96
82148;BME280;71718;50.480;12.110;2023-11-19T12:07:07;97067.44;;;10.31;64.47
82148;BME280;71718;50.480;12.110;2023-11-19T12:09:34;97059.78;;;10.54;61.08
82148;BME280;71718;50.480;12.110;2023-11-19T12:12:27;97070.88;;;10.62;60.60
82148;BME280;71718;50.480;12.110;2023-11-19T12:15:02;97070.53;;;10.40;61.56
82148;BME280;71718;50.480;12.110;2023-11-19T12:20:02;97059.63;;;10.49;60.82
82148;BME280;71718;50.480;12.110;2023-11-19T12:22:29;97063.25;;;10.48;60.72
82148;BME280;71718;50.480;12.110;2023-11-19T12:24:56;97060.47;;;10.13;61.21
82148;BME280;71718;50.480;12.110;2023-11-19T12:27:23;97056.22;;;10.19;61.61
82148;BME280;71718;50.480;12.110;2023-11-19T12:29:49;97052.09;;;9.93;62.15
82148;BME280;71718;50.480;12.110;2023-11-19T12:32:16;97055.91;;;9.72;62.91
82148;BME280;71718;50.480;12.110;2023-11-19T12:34:42;97051.84;;;9.58;63.33
82148;BME280;71718;50.480;12.110;2023-11-19T12:37:08;97061.88;;;9.55;64.67
82148;BME280;71718;50.480;12.110;2023-11-19T12:39:35;97057.53;;;9.92;64.02
82148;BME280;71718;50.480;12.110;2023-11-19T12:42:02;97050.84;;;9.78;63.21
82148;BME280;71718;50.480;12.110;2023-11-19T12:44:28;97053.34;;;9.91;62.82
82148;BME280;71718;50.480;12.110;2023-11-19T12:47:01;97059.53;;;9.90;62.48
82148;BME280;71718;50.480;12.110;2023-11-19T12:49:28;97056.78;;;9.85;62.66
82148;BME280;71718;50.480;12.110;2023-11-19T12:51:54;97058.03;;;10.00;62.40
82148;BME280;71718;50.480;12.110;2023-11-19T12:54:35;97050.44;;;9.81;62.36
82148;BME280;71718;50.480;12.110;2023-11-19T12:57:02;97057.16;;;10.06;62.17
82148;BME280;71718;50.480;12.110;2023-11-19T12:59:29;97057.88;;;9.95;62.61
82148;BME280;71718;50.480;12.110;2023-11-19T13:01:58;97051.69;;;9.96;62.36
82148;BME280;71718;50.480;12.110;2023-11-19T13:04:29;97052.19;;;9.87;62.39
82148;BME280;71718;50.480;12.110;2023-11-19T13:06:57;97055.06;;;9.97;61.97
82148;BME280;71718;50.480;12.110;2023-11-19T13:09:27;97063.06;;;10.13;61.63
82148;BME280;71718;50.480;12.110;2023-11-19T13:11:55;97082.59;;;10.16;62.33
82148;BME280;71718;50.480;12.110;2023-11-19T13:14:22;97078.56;;;10.38;63.82
82148;BME280;71718;50.480;12.110;2023-11-19T13:16:49;97073.19;;;10.51;64.98
82148;BME280;71718;50.480;12.110;2023-11-19T13:19:16;97069.66;;;10.64;64.20
82148;BME280;71718;50.480;12.110;2023-11-19T13:21:42;97080.72;;;10.71;64.63
82148;BME280;71718;50.480;12.110;2023-11-19T13:24:08;97082.25;;;10.61;65.65
82148;BME280;71718;50.480;12.110;2023-11-19T13:26:35;97079.78;;;10.54;66.51